createdAt,value
2019-05-20T00:00:52.591Z,978.21
2019-05-20T00:01:52.591Z,978.23
2019-05-20T00:02:52.593Z,978.28
2019-05-20T00:03:52.587Z,978.31
2019-05-20T00:04:52.589Z,978.29
2019-05-20T00:05:52.773Z,978.33
2019-05-20T00:06:52.582Z,978.33
2019-05-20T00:07:52.585Z,978.38
2019-05-20T00:08:52.586Z,978.38
2019-05-20T00:09:53.990Z,978.37
2019-05-20T00:10:52.572Z,978.38
2019-05-20T00:11:53.756Z,978.37
2019-05-20T00:12:52.568Z,978.36
2019-05-20T00:13:52.569Z,978.38
2019-05-20T00:14:52.565Z,978.34
2019-05-20T00:15:52.564Z,978.29
2019-05-20T00:16:52.560Z,978.29
2019-05-20T00:17:52.558Z,978.26
2019-05-20T00:18:52.561Z,978.27
2019-05-20T00:19:52.552Z,978.27
2019-05-20T00:20:55.583Z,978.25
2019-05-20T00:21:52.576Z,978.21
2019-05-20T00:22:52.551Z,978.25
2019-05-20T00:23:52.549Z,978.25
2019-05-20T00:24:52.543Z,978.25
2019-05-20T00:25:52.540Z,978.3
2019-05-20T00:26:52.548Z,978.33
2019-05-20T00:27:52.543Z,978.34
2019-05-20T00:28:52.542Z,978.29
2019-05-20T00:29:52.532Z,978.28
2019-05-20T00:30:52.531Z,978.27
2019-05-20T00:31:52.526Z,978.25
2019-05-20T00:32:52.536Z,978.25
2019-05-20T00:33:52.520Z,978.2
2019-05-20T00:34:52.516Z,978.18
2019-05-20T00:35:52.518Z,978.15
2019-05-20T00:36:52.522Z,978.09
2019-05-20T00:37:52.512Z,978.08
2019-05-20T00:38:52.512Z,978.02
2019-05-20T00:39:52.510Z,978.04
2019-05-20T00:40:52.505Z,978
2019-05-20T00:41:53.309Z,978.04
2019-05-20T00:42:52.501Z,978.02
2019-05-20T00:43:52.498Z,978
2019-05-20T00:44:52.493Z,977.95
2019-05-20T00:45:52.494Z,977.9
2019-05-20T00:46:52.497Z,977.89
2019-05-20T00:47:52.497Z,977.88
2019-05-20T00:48:52.513Z,977.88
2019-05-20T00:49:52.480Z,977.86
2019-05-20T00:50:52.478Z,977.84
2019-05-20T00:51:52.478Z,977.86
2019-05-20T00:52:55.509Z,977.9
2019-05-20T00:53:52.471Z,977.89
2019-05-20T00:54:52.469Z,977.86
2019-05-20T00:55:52.469Z,977.89
2019-05-20T00:56:52.465Z,977.86
2019-05-20T00:57:52.470Z,977.86
2019-05-20T00:58:52.459Z,977.84
2019-05-20T00:59:52.457Z,977.86
2019-05-20T01:00:52.460Z,977.85
2019-05-20T01:01:52.491Z,977.84
2019-05-20T01:02:56.725Z,977.84
2019-05-20T01:03:52.448Z,977.91
2019-05-20T01:04:52.443Z,977.88
2019-05-20T01:05:52.442Z,977.87
2019-05-20T01:06:52.488Z,977.88
2019-05-20T01:07:52.446Z,977.85
2019-05-20T01:08:52.435Z,977.87
2019-05-20T01:09:52.431Z,977.83
2019-05-20T01:10:52.424Z,977.84
2019-05-20T01:11:52.426Z,977.8
2019-05-20T01:12:52.424Z,977.76
2019-05-20T01:13:52.417Z,977.76
2019-05-20T01:14:52.416Z,977.77
2019-05-20T01:15:52.414Z,977.75
2019-05-20T01:16:52.409Z,977.76
2019-05-20T01:17:52.406Z,977.75
2019-05-20T01:18:52.404Z,977.72
2019-05-20T01:19:52.404Z,977.72
2019-05-20T01:20:52.400Z,977.74
2019-05-20T01:21:52.394Z,977.75
2019-05-20T01:22:52.393Z,977.76
2019-05-20T01:23:52.394Z,977.73
2019-05-20T01:24:55.432Z,977.74
2019-05-20T01:25:52.384Z,977.74
2019-05-20T01:26:52.384Z,977.72
2019-05-20T01:27:52.379Z,977.74
2019-05-20T01:28:52.378Z,977.74
2019-05-20T01:29:52.388Z,977.75
2019-05-20T01:30:52.374Z,977.7
2019-05-20T01:31:52.370Z,977.66
2019-05-20T01:32:52.369Z,977.68
2019-05-20T01:33:52.364Z,977.68
2019-05-20T01:34:52.363Z,977.66
2019-05-20T01:35:58.630Z,977.65
2019-05-20T01:36:52.362Z,977.62
2019-05-20T01:37:52.355Z,977.62
2019-05-20T01:38:52.351Z,977.61
2019-05-20T01:39:52.348Z,977.6
2019-05-20T01:40:52.348Z,977.59
2019-05-20T01:41:52.345Z,977.61
2019-05-20T01:42:52.341Z,977.65
2019-05-20T01:43:52.336Z,977.67
2019-05-20T01:44:52.371Z,977.68
2019-05-20T01:45:52.335Z,977.61
2019-05-20T01:46:52.331Z,977.63
2019-05-20T01:47:52.326Z,977.64
2019-05-20T01:48:52.334Z,977.64
2019-05-20T01:49:52.326Z,977.65
2019-05-20T01:50:52.318Z,977.69
2019-05-20T01:51:52.316Z,977.68
2019-05-20T01:52:52.316Z,977.7
2019-05-20T01:53:52.313Z,977.72
2019-05-20T01:54:52.333Z,977.66
2019-05-20T01:55:52.308Z,977.65
2019-05-20T01:56:53.718Z,977.62
2019-05-20T01:57:52.303Z,977.67
2019-05-20T01:58:52.299Z,977.64
2019-05-20T01:59:52.296Z,977.66
2019-05-20T02:00:52.297Z,977.66
2019-05-20T02:01:52.291Z,977.68
2019-05-20T02:02:52.293Z,977.71
2019-05-20T02:03:52.285Z,977.66
2019-05-20T02:04:52.282Z,977.69
2019-05-20T02:05:52.283Z,977.7
2019-05-20T02:06:52.281Z,977.7
2019-05-20T02:07:56.288Z,977.72
2019-05-20T02:08:52.279Z,977.65
2019-05-20T02:09:52.287Z,977.66
2019-05-20T02:10:52.269Z,977.65
2019-05-20T02:11:52.263Z,977.62
2019-05-20T02:12:52.261Z,977.59
2019-05-20T02:13:52.258Z,977.64
2019-05-20T02:14:52.255Z,977.67
2019-05-20T02:15:52.249Z,977.69
2019-05-20T02:16:52.251Z,977.72
2019-05-20T02:17:52.244Z,977.73
2019-05-20T02:18:52.243Z,977.8
2019-05-20T02:19:52.239Z,977.8
2019-05-20T02:20:52.261Z,977.79
2019-05-20T02:21:52.247Z,977.75
2019-05-20T02:22:52.229Z,977.76
2019-05-20T02:23:52.229Z,977.79
2019-05-20T02:24:52.228Z,977.78
2019-05-20T02:25:52.227Z,977.81
2019-05-20T02:26:52.227Z,977.77
2019-05-20T02:27:52.216Z,977.75
2019-05-20T02:28:52.416Z,977.74
2019-05-20T02:29:52.210Z,977.72
2019-05-20T02:30:56.112Z,977.75
2019-05-20T02:31:52.215Z,977.72
2019-05-20T02:32:52.206Z,977.71
2019-05-20T02:33:53.110Z,977.71
2019-05-20T02:34:52.236Z,977.71
2019-05-20T02:35:52.198Z,977.75
2019-05-20T02:36:52.197Z,977.75
2019-05-20T02:37:52.200Z,977.73
2019-05-20T02:38:52.194Z,977.71
2019-05-20T02:39:55.225Z,977.71
2019-05-20T02:40:52.184Z,977.73
2019-05-20T02:41:52.184Z,977.74
2019-05-20T02:42:52.180Z,977.74
2019-05-20T02:43:52.180Z,977.72
2019-05-20T02:44:52.177Z,977.69
2019-05-20T02:45:52.174Z,977.68
2019-05-20T02:46:52.174Z,977.68
2019-05-20T02:47:52.171Z,977.68
2019-05-20T02:48:52.166Z,977.72
2019-05-20T02:49:52.164Z,977.7
2019-05-20T02:50:52.163Z,977.7
2019-05-20T02:51:52.161Z,977.68
2019-05-20T02:52:52.166Z,977.68
2019-05-20T02:53:52.153Z,977.73
2019-05-20T02:54:52.154Z,977.7
2019-05-20T02:55:52.150Z,977.76
2019-05-20T02:56:52.147Z,977.77
2019-05-20T02:57:52.151Z,977.76
2019-05-20T02:58:52.146Z,977.78
2019-05-20T02:59:52.142Z,977.79
2019-05-20T03:00:52.137Z,977.78
2019-05-20T03:01:52.136Z,977.79
2019-05-20T03:02:52.132Z,977.77
2019-05-20T03:04:09.805Z,977.8
2019-05-20T03:04:52.129Z,977.79
2019-05-20T03:05:52.127Z,977.77
2019-05-20T03:06:52.124Z,977.72
2019-05-20T03:07:52.131Z,977.73
2019-05-20T03:08:52.117Z,977.76
2019-05-20T03:09:52.118Z,977.75
2019-05-20T03:10:52.114Z,977.75
2019-05-20T03:11:53.528Z,977.78
2019-05-20T03:12:52.113Z,977.8
2019-05-20T03:13:52.106Z,977.81
2019-05-20T03:14:52.128Z,977.8
2019-05-20T03:15:52.102Z,977.77
2019-05-20T03:16:52.097Z,977.77
2019-05-20T03:17:52.095Z,977.79
2019-05-20T03:18:52.118Z,977.77
2019-05-20T03:19:52.090Z,977.73
2019-05-20T03:20:52.096Z,977.8
2019-05-20T03:21:52.085Z,977.78
2019-05-20T03:22:58.383Z,977.76
2019-05-20T03:23:52.077Z,977.78
2019-05-20T03:24:52.090Z,977.76
2019-05-20T03:25:52.076Z,977.76
2019-05-20T03:26:52.079Z,977.75
2019-05-20T03:27:52.073Z,977.77
2019-05-20T03:28:57.179Z,977.76
2019-05-20T03:29:52.072Z,977.73
2019-05-20T03:30:52.063Z,977.71
2019-05-20T03:31:52.059Z,977.74
2019-05-20T03:32:52.059Z,977.81
2019-05-20T03:33:52.084Z,977.77
2019-05-20T03:34:58.393Z,977.76
2019-05-20T03:35:52.045Z,977.75
2019-05-20T03:36:52.111Z,977.72
2019-05-20T03:37:52.041Z,977.72
2019-05-20T03:38:52.042Z,977.7
2019-05-20T03:39:52.038Z,977.7
2019-05-20T03:40:52.034Z,977.68
2019-05-20T03:41:52.034Z,977.63
2019-05-20T03:42:52.026Z,977.64
2019-05-20T03:43:52.634Z,977.64
2019-05-20T03:44:52.019Z,977.66
2019-05-20T03:45:52.021Z,977.65
2019-05-20T03:46:52.023Z,977.67
2019-05-20T03:47:52.013Z,977.66
2019-05-20T03:48:52.011Z,977.69
2019-05-20T03:49:52.019Z,977.7
2019-05-20T03:50:52.005Z,977.69
2019-05-20T03:51:52.625Z,977.69
2019-05-20T03:52:52.002Z,977.69
2019-05-20T03:53:51.999Z,977.69
2019-05-20T03:54:54.396Z,977.7
2019-05-20T03:55:51.999Z,977.73
2019-05-20T03:56:51.989Z,977.72
2019-05-20T03:57:51.989Z,977.72
2019-05-20T03:58:51.989Z,977.74
2019-05-20T03:59:51.981Z,977.71
2019-05-20T04:00:51.982Z,977.75
2019-05-20T04:01:52.049Z,977.7
2019-05-20T04:02:51.975Z,977.74
2019-05-20T04:03:51.969Z,977.72
2019-05-20T04:05:01.724Z,977.72
2019-05-20T04:05:51.971Z,977.73
2019-05-20T04:06:51.970Z,977.72
2019-05-20T04:07:51.962Z,977.71
2019-05-20T04:08:51.963Z,977.67
2019-05-20T04:09:51.956Z,977.67
2019-05-20T04:10:51.952Z,977.67
2019-05-20T04:11:52.008Z,977.66
2019-05-20T04:12:51.946Z,977.67
2019-05-20T04:13:51.946Z,977.64
2019-05-20T04:14:51.945Z,977.63
2019-05-20T04:15:51.950Z,977.68
2019-05-20T04:16:51.939Z,977.66
2019-05-20T04:17:51.935Z,977.69
2019-05-20T04:18:54.085Z,977.64
2019-05-20T04:19:51.932Z,977.64
2019-05-20T04:20:51.928Z,977.69
2019-05-20T04:21:51.927Z,977.64
2019-05-20T04:22:51.924Z,977.62
2019-05-20T04:23:51.926Z,977.63
2019-05-20T04:24:51.921Z,977.64
2019-05-20T04:25:51.972Z,977.63
2019-05-20T04:26:54.950Z,977.59
2019-05-20T04:27:51.910Z,977.6
2019-05-20T04:28:51.910Z,977.59
2019-05-20T04:29:51.905Z,977.57
2019-05-20T04:30:51.906Z,977.62
2019-05-20T04:31:51.902Z,977.58
2019-05-20T04:32:51.899Z,977.59
2019-05-20T04:33:51.900Z,977.58
2019-05-20T04:34:51.894Z,977.59
2019-05-20T04:35:51.911Z,977.55
2019-05-20T04:36:51.889Z,977.59
2019-05-20T04:37:58.152Z,977.58
2019-05-20T04:38:51.892Z,977.57
2019-05-20T04:39:51.886Z,977.57
2019-05-20T04:40:51.882Z,977.54
2019-05-20T04:41:51.885Z,977.55
2019-05-20T04:42:51.885Z,977.56
2019-05-20T04:43:51.879Z,977.52
2019-05-20T04:44:51.871Z,977.54
2019-05-20T04:45:51.869Z,977.54
2019-05-20T04:46:51.881Z,977.53
2019-05-20T04:47:51.861Z,977.53
2019-05-20T04:48:51.866Z,977.52
2019-05-20T04:49:51.854Z,977.52
2019-05-20T04:50:51.854Z,977.58
2019-05-20T04:51:51.854Z,977.55
2019-05-20T04:52:51.847Z,977.59
2019-05-20T04:53:51.846Z,977.59
2019-05-20T04:54:51.844Z,977.62
2019-05-20T04:55:51.844Z,977.66
2019-05-20T04:56:51.839Z,977.65
2019-05-20T04:57:51.837Z,977.65
2019-05-20T04:58:53.250Z,977.66
2019-05-20T04:59:51.869Z,977.66
2019-05-20T05:00:52.224Z,977.68
2019-05-20T05:01:51.829Z,977.69
2019-05-20T05:02:51.826Z,977.65
2019-05-20T05:03:51.824Z,977.66
2019-05-20T05:04:51.820Z,977.69
2019-05-20T05:05:51.830Z,977.71
2019-05-20T05:06:51.818Z,977.71
2019-05-20T05:07:51.824Z,977.73
2019-05-20T05:08:51.810Z,977.7
2019-05-20T05:09:54.844Z,977.76
2019-05-20T05:10:51.808Z,977.79
2019-05-20T05:11:51.805Z,977.78
2019-05-20T05:12:51.804Z,977.79
2019-05-20T05:13:51.807Z,977.8
2019-05-20T05:14:51.800Z,977.78
2019-05-20T05:15:51.848Z,977.81
2019-05-20T05:16:51.799Z,977.8
2019-05-20T05:17:51.797Z,977.85
2019-05-20T05:18:51.793Z,977.83
2019-05-20T05:19:51.793Z,977.85
2019-05-20T05:20:51.792Z,977.88
2019-05-20T05:21:51.789Z,977.85
2019-05-20T05:22:51.787Z,977.9
2019-05-20T05:23:59.045Z,977.87
2019-05-20T05:24:51.787Z,977.87
2019-05-20T05:25:51.783Z,977.9
2019-05-20T05:26:51.789Z,977.88
2019-05-20T05:27:51.778Z,977.9
2019-05-20T05:28:51.778Z,977.88
2019-05-20T05:29:51.779Z,977.89
2019-05-20T05:30:53.727Z,977.9
2019-05-20T05:31:51.773Z,977.93
2019-05-20T05:32:51.781Z,977.9
2019-05-20T05:33:54.299Z,977.9
2019-05-20T05:34:51.896Z,977.88
2019-05-20T05:35:53.475Z,977.87
2019-05-20T05:36:51.764Z,977.89
2019-05-20T05:37:51.884Z,977.9
2019-05-20T05:38:51.763Z,977.87
2019-05-20T05:39:51.762Z,977.88
2019-05-20T05:40:51.763Z,977.91
2019-05-20T05:41:54.794Z,977.9
2019-05-20T05:42:51.759Z,977.93
2019-05-20T05:43:51.757Z,977.93
2019-05-20T05:44:51.758Z,977.91
2019-05-20T05:45:51.757Z,977.95
2019-05-20T05:46:51.754Z,977.94
2019-05-20T05:47:51.753Z,977.93
2019-05-20T05:48:51.751Z,977.93
2019-05-20T05:49:51.751Z,977.96
2019-05-20T05:50:51.752Z,978
2019-05-20T05:51:51.748Z,977.99
2019-05-20T05:52:51.751Z,977.96
2019-05-20T05:53:51.748Z,977.94
2019-05-20T05:54:51.746Z,977.99
2019-05-20T05:55:51.747Z,978.02
2019-05-20T05:56:51.747Z,978
2019-05-20T05:57:51.751Z,977.95
2019-05-20T05:58:51.753Z,977.95
2019-05-20T05:59:51.747Z,977.91
2019-05-20T06:00:51.740Z,977.89
2019-05-20T06:01:51.739Z,977.91
2019-05-20T06:02:51.741Z,977.89
2019-05-20T06:03:51.737Z,977.9
2019-05-20T06:04:51.742Z,977.92
2019-05-20T06:05:51.737Z,977.87
2019-05-20T06:06:51.763Z,977.9
2019-05-20T06:07:51.738Z,977.89
2019-05-20T06:08:51.736Z,977.89
2019-05-20T06:09:51.740Z,977.87
2019-05-20T06:10:51.757Z,977.94
2019-05-20T06:11:51.734Z,977.96
2019-05-20T06:12:51.740Z,977.96
2019-05-20T06:13:53.163Z,977.94
2019-05-20T06:14:51.731Z,977.95
2019-05-20T06:15:54.431Z,977.99
2019-05-20T06:16:51.779Z,977.92
2019-05-20T06:17:51.733Z,977.96
2019-05-20T06:18:51.731Z,978
2019-05-20T06:19:51.728Z,977.97
2019-05-20T06:20:51.738Z,978.01
2019-05-20T06:21:51.763Z,978
2019-05-20T06:22:51.726Z,977.94
2019-05-20T06:23:51.726Z,978.04
2019-05-20T06:24:57.992Z,977.97
2019-05-20T06:25:51.722Z,978.02
2019-05-20T06:26:51.722Z,978.02
2019-05-20T06:27:51.723Z,978.05
2019-05-20T06:28:51.726Z,978.02
2019-05-20T06:29:51.723Z,978.03
2019-05-20T06:30:51.725Z,978.06
2019-05-20T06:31:53.619Z,978.06
2019-05-20T06:32:51.721Z,978.09
2019-05-20T06:33:51.716Z,978.1
2019-05-20T06:34:51.718Z,978.15
2019-05-20T06:35:51.723Z,978.15
2019-05-20T06:36:51.722Z,978.13
2019-05-20T06:37:51.747Z,978.13
2019-05-20T06:38:51.722Z,978.11
2019-05-20T06:39:51.721Z,978.13
2019-05-20T06:40:51.730Z,978.17
2019-05-20T06:41:51.722Z,978.14
2019-05-20T06:42:51.726Z,978.11
2019-05-20T06:43:51.726Z,978.12
2019-05-20T06:44:54.011Z,978.13
2019-05-20T06:45:52.342Z,978.11
2019-05-20T06:46:51.712Z,978.13
2019-05-20T06:47:51.711Z,978.13
2019-05-20T06:48:51.726Z,978.15
2019-05-20T06:49:51.708Z,978.1
2019-05-20T06:50:51.710Z,978.16
2019-05-20T06:51:51.711Z,978.11
2019-05-20T06:52:51.708Z,978.13
2019-05-20T06:53:51.709Z,978.11
2019-05-20T06:54:51.708Z,978.14
2019-05-20T06:55:51.713Z,978.12
2019-05-20T06:56:54.768Z,978.14
2019-05-20T06:57:51.709Z,978.12
2019-05-20T06:58:51.707Z,978.11
2019-05-20T06:59:51.722Z,978.17
2019-05-20T07:00:51.717Z,978.16
2019-05-20T07:01:51.709Z,978.15
2019-05-20T07:02:52.249Z,978.13
2019-05-20T07:03:51.708Z,978.11
2019-05-20T07:04:51.708Z,978.16
2019-05-20T07:05:51.718Z,978.17
2019-05-20T07:06:51.708Z,978.19
2019-05-20T07:07:51.706Z,978.15
2019-05-20T07:08:51.707Z,978.2
2019-05-20T07:09:51.706Z,978.22
2019-05-20T07:10:51.703Z,978.22
2019-05-20T07:11:52.993Z,978.24
2019-05-20T07:12:51.702Z,978.19
2019-05-20T07:13:51.705Z,978.3
2019-05-20T07:14:51.705Z,978.22
2019-05-20T07:15:51.704Z,978.23
2019-05-20T07:16:51.704Z,978.26
2019-05-20T07:17:51.747Z,978.25
2019-05-20T07:18:51.702Z,978.23
2019-05-20T07:19:51.700Z,978.28
2019-05-20T07:20:51.700Z,978.24
2019-05-20T07:21:51.707Z,978.26
2019-05-20T07:22:55.546Z,978.27
2019-05-20T07:23:52.444Z,978.28
2019-05-20T07:24:51.704Z,978.32
2019-05-20T07:25:51.698Z,978.28
2019-05-20T07:26:51.697Z,978.27
2019-05-20T07:27:51.709Z,978.24
2019-05-20T07:28:54.733Z,978.27
2019-05-20T07:29:51.696Z,978.32
2019-05-20T07:30:51.698Z,978.33
2019-05-20T07:31:51.698Z,978.3
2019-05-20T07:32:51.697Z,978.26
2019-05-20T07:33:51.694Z,978.28
2019-05-20T07:34:51.692Z,978.22
2019-05-20T07:35:51.708Z,978.18
2019-05-20T07:37:02.338Z,978.24
2019-05-20T07:37:51.691Z,978.2
2019-05-20T07:38:51.689Z,978.22
2019-05-20T07:39:57.971Z,978.18
2019-05-20T07:40:51.689Z,978.18
2019-05-20T07:41:51.700Z,978.21
2019-05-20T07:42:51.695Z,978.24
2019-05-20T07:43:51.692Z,978.24
2019-05-20T07:44:51.691Z,978.27
2019-05-20T07:45:51.693Z,978.25
2019-05-20T07:46:51.690Z,978.18
2019-05-20T07:47:51.698Z,978.21
2019-05-20T07:48:51.698Z,978.22
2019-05-20T07:49:51.699Z,978.2
2019-05-20T07:50:51.679Z,978.23
2019-05-20T07:51:51.679Z,978.22
2019-05-20T07:52:51.700Z,978.22
2019-05-20T07:53:51.711Z,978.24
2019-05-20T07:54:51.678Z,978.26
2019-05-20T07:55:51.697Z,978.26
2019-05-20T07:56:51.677Z,978.22
2019-05-20T07:57:51.682Z,978.25
2019-05-20T07:58:51.669Z,978.23
2019-05-20T07:59:51.671Z,978.26
2019-05-20T08:00:53.086Z,978.25
2019-05-20T08:01:51.672Z,978.26
2019-05-20T08:02:51.671Z,978.26
2019-05-20T08:03:51.665Z,978.27
2019-05-20T08:04:51.676Z,978.26
2019-05-20T08:05:51.662Z,978.22
2019-05-20T08:06:51.710Z,978.24
2019-05-20T08:07:52.748Z,978.22
2019-05-20T08:08:51.659Z,978.23
2019-05-20T08:09:51.663Z,978.22
2019-05-20T08:10:51.654Z,978.25
2019-05-20T08:11:54.699Z,978.25
2019-05-20T08:12:51.655Z,978.25
2019-05-20T08:13:51.657Z,978.27
2019-05-20T08:14:51.658Z,978.25
2019-05-20T08:15:51.680Z,978.29
2019-05-20T08:16:51.698Z,978.27
2019-05-20T08:17:51.657Z,978.28
2019-05-20T08:18:51.647Z,978.27
2019-05-20T08:19:51.641Z,978.26
2019-05-20T08:20:51.642Z,978.28
2019-05-20T08:21:51.651Z,978.31
2019-05-20T08:22:51.647Z,978.33
2019-05-20T08:23:51.635Z,978.35
2019-05-20T08:24:51.635Z,978.35
2019-05-20T08:25:51.634Z,978.35
2019-05-20T08:26:51.634Z,978.37
2019-05-20T08:27:51.630Z,978.4
2019-05-20T08:28:51.635Z,978.43
2019-05-20T08:29:51.636Z,978.4
2019-05-20T08:30:51.629Z,978.44
2019-05-20T08:31:51.624Z,978.45
2019-05-20T08:32:51.828Z,978.44
2019-05-20T08:33:51.624Z,978.45
2019-05-20T08:34:51.627Z,978.44
2019-05-20T08:35:51.623Z,978.41
2019-05-20T08:36:51.627Z,978.42
2019-05-20T08:37:51.623Z,978.47
2019-05-20T08:38:51.622Z,978.48
2019-05-20T08:39:51.621Z,978.48
2019-05-20T08:40:51.659Z,978.54
2019-05-20T08:41:51.621Z,978.55
2019-05-20T08:42:51.624Z,978.55
2019-05-20T08:43:54.648Z,978.55
2019-05-20T08:44:51.635Z,978.52
2019-05-20T08:45:51.618Z,978.53
2019-05-20T08:46:51.627Z,978.6
2019-05-20T08:47:51.623Z,978.58
2019-05-20T08:48:51.614Z,978.59
2019-05-20T08:49:51.961Z,978.64
2019-05-20T08:50:51.641Z,978.62
2019-05-20T08:51:51.682Z,978.7
2019-05-20T08:52:51.613Z,978.71
2019-05-20T08:53:51.623Z,978.7
2019-05-20T08:54:51.610Z,978.74
2019-05-20T08:55:51.629Z,978.77
2019-05-20T08:56:51.609Z,978.81
2019-05-20T08:57:51.621Z,978.78
2019-05-20T08:58:51.602Z,978.79
2019-05-20T08:59:51.604Z,978.81
2019-05-20T09:00:51.600Z,978.85
2019-05-20T09:01:51.605Z,978.87
2019-05-20T09:02:51.599Z,978.9
2019-05-20T09:03:54.856Z,978.89
2019-05-20T09:04:51.603Z,978.92
2019-05-20T09:05:51.596Z,978.86
2019-05-20T09:06:51.603Z,978.86
2019-05-20T09:08:01.944Z,978.84
2019-05-20T09:08:51.596Z,978.82
2019-05-20T09:09:51.597Z,978.78
2019-05-20T09:10:51.594Z,978.75
2019-05-20T09:11:51.596Z,978.7
2019-05-20T09:12:51.596Z,978.71
2019-05-20T09:13:51.602Z,978.65
2019-05-20T09:14:51.599Z,978.67
2019-05-20T09:15:53.011Z,978.64
2019-05-20T09:16:51.596Z,978.66
2019-05-20T09:17:51.596Z,978.68
2019-05-20T09:18:51.598Z,978.67
2019-05-20T09:19:51.599Z,978.7
2019-05-20T09:20:51.605Z,978.68
2019-05-20T09:21:51.682Z,978.69
2019-05-20T09:22:51.603Z,978.7
2019-05-20T09:23:51.594Z,978.7
2019-05-20T09:24:51.788Z,978.71
2019-05-20T09:25:51.596Z,978.71
2019-05-20T09:26:54.639Z,978.76
2019-05-20T09:27:51.608Z,978.83
2019-05-20T09:28:51.602Z,978.89
2019-05-20T09:29:51.651Z,978.88
2019-05-20T09:30:51.594Z,978.91
2019-05-20T09:31:51.598Z,978.93
2019-05-20T09:32:51.604Z,978.93
2019-05-20T09:33:51.596Z,978.91
2019-05-20T09:34:51.597Z,978.88
2019-05-20T09:35:51.619Z,978.9
2019-05-20T09:36:51.599Z,978.89
2019-05-20T09:37:51.599Z,978.82
2019-05-20T09:38:51.597Z,978.83
2019-05-20T09:39:51.627Z,978.85
2019-05-20T09:40:51.601Z,978.79
2019-05-20T09:41:51.598Z,978.86
2019-05-20T09:42:51.613Z,978.78
2019-05-20T09:43:51.602Z,978.78
2019-05-20T09:44:51.617Z,978.78
2019-05-20T09:46:05.493Z,978.78
2019-05-20T09:46:51.604Z,978.8
2019-05-20T09:47:52.209Z,978.78
2019-05-20T09:48:51.684Z,978.76
2019-05-20T09:49:51.604Z,978.78
2019-05-20T09:50:51.602Z,978.77
2019-05-20T09:51:51.602Z,978.77
2019-05-20T09:52:51.604Z,978.74
2019-05-20T09:53:51.603Z,978.74
2019-05-20T09:54:51.602Z,978.78
2019-05-20T09:55:51.605Z,978.77
2019-05-20T09:56:51.603Z,978.79
2019-05-20T09:57:51.605Z,978.83
2019-05-20T09:58:54.634Z,978.88
2019-05-20T09:59:51.652Z,978.89
2019-05-20T10:00:51.600Z,978.9
2019-05-20T10:01:51.600Z,978.94
2019-05-20T10:02:51.600Z,978.92
2019-05-20T10:03:51.610Z,978.95
2019-05-20T10:04:52.551Z,978.94
2019-05-20T10:05:51.599Z,978.93
2019-05-20T10:06:51.610Z,978.93
2019-05-20T10:07:51.603Z,978.94
2019-05-20T10:08:51.601Z,978.98
2019-05-20T10:09:51.599Z,978.97
2019-05-20T10:10:51.601Z,978.93
2019-05-20T10:11:51.603Z,978.93
2019-05-20T10:12:51.603Z,978.92
2019-05-20T10:13:51.598Z,978.93
2019-05-20T10:14:52.818Z,978.95
2019-05-20T10:15:51.643Z,978.95
2019-05-20T10:16:51.599Z,978.96
2019-05-20T10:17:51.599Z,978.96
2019-05-20T10:18:55.090Z,979
2019-05-20T10:19:51.599Z,978.99
2019-05-20T10:20:51.599Z,979.03
2019-05-20T10:21:51.603Z,978.95
2019-05-20T10:22:51.599Z,978.99
2019-05-20T10:23:51.610Z,978.98
2019-05-20T10:24:51.602Z,979
2019-05-20T10:25:51.604Z,979.08
2019-05-20T10:26:51.598Z,979.08
2019-05-20T10:27:51.606Z,979.02
2019-05-20T10:28:51.602Z,979.06
2019-05-20T10:29:51.602Z,979.06
2019-05-20T10:30:53.030Z,979.05
2019-05-20T10:31:51.624Z,979.09
2019-05-20T10:32:51.626Z,979.06
2019-05-20T10:33:51.645Z,979.08
2019-05-20T10:34:51.596Z,979.01
2019-05-20T10:35:51.598Z,979.07
2019-05-20T10:36:51.600Z,979.07
2019-05-20T10:37:51.599Z,979.11
2019-05-20T10:38:58.302Z,979.12
2019-05-20T10:39:51.646Z,979.12
2019-05-20T10:40:51.641Z,979.13
2019-05-20T10:41:57.860Z,979.13
2019-05-20T10:42:51.603Z,979.11
2019-05-20T10:43:51.592Z,979.11
2019-05-20T10:44:51.600Z,979.13
2019-05-20T10:45:51.593Z,979.13
2019-05-20T10:46:51.589Z,979.13
2019-05-20T10:47:51.588Z,979.09
2019-05-20T10:48:51.590Z,979.09
2019-05-20T10:49:51.587Z,979.14
2019-05-20T10:50:51.592Z,979.09
2019-05-20T10:51:51.586Z,979.13
2019-05-20T10:52:51.594Z,979.16
2019-05-20T10:53:51.591Z,979.18
2019-05-20T10:54:51.596Z,979.18
2019-05-20T10:55:51.583Z,979.22
2019-05-20T10:56:51.599Z,979.17
2019-05-20T10:57:51.606Z,979.21
2019-05-20T10:58:51.578Z,979.2
2019-05-20T10:59:51.580Z,979.17
2019-05-20T11:01:02.135Z,979.19
2019-05-20T11:01:51.585Z,979.21
2019-05-20T11:02:52.182Z,979.2
2019-05-20T11:03:51.572Z,979.19
2019-05-20T11:04:51.608Z,979.25
2019-05-20T11:05:51.641Z,979.27
2019-05-20T11:06:51.575Z,979.31
2019-05-20T11:07:51.702Z,979.31
2019-05-20T11:08:51.586Z,979.32
2019-05-20T11:09:51.570Z,979.31
2019-05-20T11:10:51.598Z,979.29
2019-05-20T11:11:51.565Z,979.26
2019-05-20T11:12:51.565Z,979.31
2019-05-20T11:13:54.599Z,979.29
2019-05-20T11:14:51.571Z,979.29
2019-05-20T11:15:51.563Z,979.3
2019-05-20T11:16:51.562Z,979.29
2019-05-20T11:17:51.560Z,979.31
2019-05-20T11:18:51.558Z,979.32
2019-05-20T11:19:51.562Z,979.31
2019-05-20T11:20:51.616Z,979.27
2019-05-20T11:21:51.565Z,979.33
2019-05-20T11:22:51.568Z,979.33
2019-05-20T11:23:51.577Z,979.38
2019-05-20T11:24:51.568Z,979.37
2019-05-20T11:25:51.560Z,979.37
2019-05-20T11:26:51.552Z,979.38
2019-05-20T11:27:51.548Z,979.38
2019-05-20T11:28:51.560Z,979.39
2019-05-20T11:29:51.548Z,979.36
2019-05-20T11:30:51.545Z,979.38
2019-05-20T11:31:51.545Z,979.41
2019-05-20T11:32:51.604Z,979.42
2019-05-20T11:33:51.598Z,979.37
2019-05-20T11:34:51.554Z,979.37
2019-05-20T11:35:51.588Z,979.36
2019-05-20T11:36:51.542Z,979.36
2019-05-20T11:37:51.539Z,979.36
2019-05-20T11:38:51.538Z,979.35
2019-05-20T11:39:51.535Z,979.35
2019-05-20T11:40:51.550Z,979.35
2019-05-20T11:41:53.627Z,979.29
2019-05-20T11:42:51.530Z,979.31
2019-05-20T11:43:51.543Z,979.3
2019-05-20T11:44:51.554Z,979.3
2019-05-20T11:45:53.929Z,979.28
2019-05-20T11:46:51.529Z,979.24
2019-05-20T11:47:51.524Z,979.26
2019-05-20T11:48:51.526Z,979.26
2019-05-20T11:49:51.528Z,979.22
2019-05-20T11:50:51.580Z,979.19
2019-05-20T11:51:51.522Z,979.19
2019-05-20T11:52:51.518Z,979.2
2019-05-20T11:53:51.518Z,979.24
2019-05-20T11:54:51.523Z,979.26
2019-05-20T11:55:51.557Z,979.27
2019-05-20T11:56:57.842Z,979.32
2019-05-20T11:57:51.519Z,979.34
2019-05-20T11:58:51.519Z,979.37
2019-05-20T11:59:51.525Z,979.37
2019-05-20T12:00:51.517Z,979.37
2019-05-20T12:01:51.522Z,979.44
2019-05-20T12:02:51.525Z,979.43
2019-05-20T12:03:51.509Z,979.44
2019-05-20T12:04:51.507Z,979.41
2019-05-20T12:05:51.523Z,979.43
2019-05-20T12:06:51.510Z,979.44
2019-05-20T12:07:51.506Z,979.47
2019-05-20T12:08:51.518Z,979.47
2019-05-20T12:09:51.518Z,979.49
2019-05-20T12:10:51.504Z,979.45
2019-05-20T12:11:51.504Z,979.48
2019-05-20T12:12:51.573Z,979.42
2019-05-20T12:13:51.620Z,979.44
2019-05-20T12:14:51.505Z,979.47
2019-05-20T12:15:51.503Z,979.42
2019-05-20T12:16:51.502Z,979.38
2019-05-20T12:17:52.919Z,979.41
2019-05-20T12:18:51.503Z,979.4
2019-05-20T12:19:51.512Z,979.44
2019-05-20T12:20:51.504Z,979.35
2019-05-20T12:21:51.501Z,979.37
2019-05-20T12:22:51.505Z,979.38
2019-05-20T12:23:51.503Z,979.43
2019-05-20T12:24:51.855Z,979.45
2019-05-20T12:25:51.503Z,979.44
2019-05-20T12:26:51.504Z,979.49
2019-05-20T12:27:51.505Z,979.46
2019-05-20T12:28:54.536Z,979.42
2019-05-20T12:29:51.503Z,979.43
2019-05-20T12:30:51.508Z,979.45
2019-05-20T12:31:51.532Z,979.43